sensor_id;sensor_type;location;lat;lon;timestamp;temperature;humidity
11666;DHT22;5889;51.350;6.708;2022-12-05T00:00:23;3.30;99.90
11666;DHT22;5889;51.350;6.708;2022-12-05T00:02:50;3.30;99.90
11666;DHT22;5889;51.350;6.708;2022-12-05T00:05:17;3.30;99.90
11666;DHT22;5889;51.350;6.708;2022-12-05T00:07:45;3.40;99.90
11666;DHT22;5889;51.350;6.708;2022-12-05T00:10:13;3.30;99.90
11666;DHT22;5889;51.350;6.708;2022-12-05T00:12:40;3.40;99.90
11666;DHT22;5889;51.350;6.708;2022-12-05T00:15:08;3.30;99.90
11666;DHT22;5889;51.350;6.708;2022-12-05T00:17:37;3.30;99.90
11666;DHT22;5889;51.350;6.708;2022-12-05T00:20:06;3.30;99.90
11666;DHT22;5889;51.350;6.708;2022-12-05T00:22:34;3.30;99.90
11666;DHT22;5889;51.350;6.708;2022-12-05T00:25:03;3.40;99.90
11666;DHT22;5889;51.350;6.708;2022-12-05T00:27:31;3.30;99.90
11666;DHT22;5889;51.350;6.708;2022-12-05T00:29:58;3.40;99.90
11666;DHT22;5889;51.350;6.708;2022-12-05T00:32:27;3.40;99.90
11666;DHT22;5889;51.350;6.708;2022-12-05T00:34:54;3.40;99.90
11666;DHT22;5889;51.350;6.708;2022-12-05T00:37:21;3.40;99.90
11666;DHT22;5889;51.350;6.708;2022-12-05T00:39:48;3.40;99.90
11666;DHT22;5889;51.350;6.708;2022-12-05T00:42:16;3.30;99.90
11666;DHT22;5889;51.350;6.708;2022-12-05T00:44:43;3.20;99.90
11666;DHT22;5889;51.350;6.708;2022-12-05T00:47:10;3.30;99.90
11666;DHT22;5889;51.350;6.708;2022-12-05T00:49:37;3.30;99.90
11666;DHT22;5889;51.350;6.708;2022-12-05T00:52:05;3.30;99.90
11666;DHT22;5889;51.350;6.708;2022-12-05T00:54:32;3.30;99.90
11666;DHT22;5889;51.350;6.708;2022-12-05T00:56:59;3.30;99.90
11666;DHT22;5889;51.350;6.708;2022-12-05T00:59:27;3.30;99.90
11666;DHT22;5889;51.350;6.708;2022-12-05T01:01:54;3.30;99.90
11666;DHT22;5889;51.350;6.708;2022-12-05T01:04:23;3.30;99.90
11666;DHT22;5889;51.350;6.708;2022-12-05T01:06:53;3.30;99.90
11666;DHT22;5889;51.350;6.708;2022-12-05T01:09:20;3.30;99.90
11666;DHT22;5889;51.350;6.708;2022-12-05T01:11:48;3.30;99.90
11666;DHT22;5889;51.350;6.708;2022-12-05T01:14:18;3.30;99.90
11666;DHT22;5889;51.350;6.708;2022-12-05T01:16:48;3.30;99.90
11666;DHT22;5889;51.350;6.708;2022-12-05T01:19:20;3.30;99.90
11666;DHT22;5889;51.350;6.708;2022-12-05T01:21:47;3.20;99.90
11666;DHT22;5889;51.350;6.708;2022-12-05T01:24:15;3.30;99.90
11666;DHT22;5889;51.350;6.708;2022-12-05T01:26:43;3.30;99.90
11666;DHT22;5889;51.350;6.708;2022-12-05T01:29:12;3.30;99.90
11666;DHT22;5889;51.350;6.708;2022-12-05T01:31:39;3.30;99.90
11666;DHT22;5889;51.350;6.708;2022-12-05T01:34:10;3.30;99.90
11666;DHT22;5889;51.350;6.708;2022-12-05T01:36:38;3.30;99.90
11666;DHT22;5889;51.350;6.708;2022-12-05T01:39:05;3.30;99.90
11666;DHT22;5889;51.350;6.708;2022-12-05T01:41:35;3.30;99.90
11666;DHT22;5889;51.350;6.708;2022-12-05T01:44:05;3.30;99.90
11666;DHT22;5889;51.350;6.708;2022-12-05T01:46:34;3.30;99.90
11666;DHT22;5889;51.350;6.708;2022-12-05T01:49:04;3.30;99.90
11666;DHT22;5889;51.350;6.708;2022-12-05T01:51:36;3.30;99.90
11666;DHT22;5889;51.350;6.708;2022-12-05T01:54:05;3.20;99.90
11666;DHT22;5889;51.350;6.708;2022-12-05T01:56:33;3.20;99.90
11666;DHT22;5889;51.350;6.708;2022-12-05T01:59:04;3.20;99.90
11666;DHT22;5889;51.350;6.708;2022-12-05T02:01:33;3.20;99.90
11666;DHT22;5889;51.350;6.708;2022-12-05T02:04:01;3.20;99.90
11666;DHT22;5889;51.350;6.708;2022-12-05T02:06:29;3.20;99.90
11666;DHT22;5889;51.350;6.708;2022-12-05T02:08:58;3.30;99.90
11666;DHT22;5889;51.350;6.708;2022-12-05T02:11:26;3.30;99.90
11666;DHT22;5889;51.350;6.708;2022-12-05T02:14:16;3.30;99.90
11666;DHT22;5889;51.350;6.708;2022-12-05T02:16:51;3.30;99.90
11666;DHT22;5889;51.350;6.708;2022-12-05T02:19:52;3.30;99.90
11666;DHT22;5889;51.350;6.708;2022-12-05T02:22:52;3.30;99.90
11666;DHT22;5889;51.350;6.708;2022-12-05T02:28:46;3.20;99.90
11666;DHT22;5889;51.350;6.708;2022-12-05T02:31:22;3.30;99.90
11666;DHT22;5889;51.350;6.708;2022-12-05T02:34:01;3.30;99.90
11666;DHT22;5889;51.350;6.708;2022-12-05T02:36:35;3.30;99.90
11666;DHT22;5889;51.350;6.708;2022-12-05T02:39:11;3.30;99.90
11666;DHT22;5889;51.350;6.708;2022-12-05T02:41:46;3.20;99.90
11666;DHT22;5889;51.350;6.708;2022-12-05T02:44:18;3.30;99.90
11666;DHT22;5889;51.350;6.708;2022-12-05T02:46:49;3.30;99.90
11666;DHT22;5889;51.350;6.708;2022-12-05T02:49:20;3.30;99.90
11666;DHT22;5889;51.350;6.708;2022-12-05T02:51:51;3.30;99.90
11666;DHT22;5889;51.350;6.708;2022-12-05T02:54:20;3.20;99.90
11666;DHT22;5889;51.350;6.708;2022-12-05T02:56:51;3.20;99.90
11666;DHT22;5889;51.350;6.708;2022-12-05T02:59:18;3.20;99.90
11666;DHT22;5889;51.350;6.708;2022-12-05T03:01:50;3.30;99.90
11666;DHT22;5889;51.350;6.708;2022-12-05T03:04:18;3.20;99.90
11666;DHT22;5889;51.350;6.708;2022-12-05T03:06:50;3.20;99.90
11666;DHT22;5889;51.350;6.708;2022-12-05T03:09:21;3.20;99.90
11666;DHT22;5889;51.350;6.708;2022-12-05T03:11:53;3.20;99.90
11666;DHT22;5889;51.350;6.708;2022-12-05T03:14:24;3.20;99.90
11666;DHT22;5889;51.350;6.708;2022-12-05T03:16:56;3.20;99.90
11666;DHT22;5889;51.350;6.708;2022-12-05T03:19:29;3.20;99.90
11666;DHT22;5889;51.350;6.708;2022-12-05T03:22:00;3.20;99.90
11666;DHT22;5889;51.350;6.708;2022-12-05T03:24:29;3.20;99.90
11666;DHT22;5889;51.350;6.708;2022-12-05T03:27:04;3.20;99.90
11666;DHT22;5889;51.350;6.708;2022-12-05T03:29:35;3.20;99.90
11666;DHT22;5889;51.350;6.708;2022-12-05T03:32:10;3.20;99.90
11666;DHT22;5889;51.350;6.708;2022-12-05T03:34:50;3.20;99.90
11666;DHT22;5889;51.350;6.708;2022-12-05T03:37:26;3.20;99.90
11666;DHT22;5889;51.350;6.708;2022-12-05T03:40:05;3.20;99.90
11666;DHT22;5889;51.350;6.708;2022-12-05T03:42:34;3.20;99.90
11666;DHT22;5889;51.350;6.708;2022-12-05T03:45:07;3.20;99.90
11666;DHT22;5889;51.350;6.708;2022-12-05T03:47:43;3.20;99.90
11666;DHT22;5889;51.350;6.708;2022-12-05T03:50:14;3.20;99.90
11666;DHT22;5889;51.350;6.708;2022-12-05T03:52:48;3.20;99.90
11666;DHT22;5889;51.350;6.708;2022-12-05T03:55:17;3.20;99.90
11666;DHT22;5889;51.350;6.708;2022-12-05T03:57:47;3.20;99.90
11666;DHT22;5889;51.350;6.708;2022-12-05T04:00:18;3.20;99.90
11666;DHT22;5889;51.350;6.708;2022-12-05T04:02:50;3.20;99.90
11666;DHT22;5889;51.350;6.708;2022-12-05T04:05:21;3.20;99.90
11666;DHT22;5889;51.350;6.708;2022-12-05T04:07:52;3.20;99.90
11666;DHT22;5889;51.350;6.708;2022-12-05T04:10:24;3.20;99.90
11666;DHT22;5889;51.350;6.708;2022-12-05T04:12:54;3.30;99.90
11666;DHT22;5889;51.350;6.708;2022-12-05T04:15:24;3.30;99.90
11666;DHT22;5889;51.350;6.708;2022-12-05T04:18:18;3.30;99.90
11666;DHT22;5889;51.350;6.708;2022-12-05T04:20:45;3.30;99.90
11666;DHT22;5889;51.350;6.708;2022-12-05T04:23:31;3.30;99.90
11666;DHT22;5889;51.350;6.708;2022-12-05T04:26:02;3.30;99.90
11666;DHT22;5889;51.350;6.708;2022-12-05T04:28:33;3.30;99.90
11666;DHT22;5889;51.350;6.708;2022-12-05T04:31:05;3.30;99.90
11666;DHT22;5889;51.350;6.708;2022-12-05T04:33:42;3.30;99.90
11666;DHT22;5889;51.350;6.708;2022-12-05T04:36:14;3.40;99.90
11666;DHT22;5889;51.350;6.708;2022-12-05T04:38:45;3.40;99.90
11666;DHT22;5889;51.350;6.708;2022-12-05T04:41:18;3.40;99.90
11666;DHT22;5889;51.350;6.708;2022-12-05T04:43:48;3.40;99.90
11666;DHT22;5889;51.350;6.708;2022-12-05T04:46:18;3.40;99.90
11666;DHT22;5889;51.350;6.708;2022-12-05T04:48:50;3.40;99.90
11666;DHT22;5889;51.350;6.708;2022-12-05T04:51:21;3.50;99.90
11666;DHT22;5889;51.350;6.708;2022-12-05T04:53:52;3.50;99.90
11666;DHT22;5889;51.350;6.708;2022-12-05T04:56:21;3.50;99.90
11666;DHT22;5889;51.350;6.708;2022-12-05T04:58:49;3.50;99.90
11666;DHT22;5889;51.350;6.708;2022-12-05T05:01:20;3.40;99.90
11666;DHT22;5889;51.350;6.708;2022-12-05T05:03:53;3.50;99.90
11666;DHT22;5889;51.350;6.708;2022-12-05T05:06:21;3.50;99.90
11666;DHT22;5889;51.350;6.708;2022-12-05T05:08:50;3.50;99.90
11666;DHT22;5889;51.350;6.708;2022-12-05T05:11:19;3.60;99.90
11666;DHT22;5889;51.350;6.708;2022-12-05T05:13:47;3.50;99.90
11666;DHT22;5889;51.350;6.708;2022-12-05T05:16:16;3.50;99.90
11666;DHT22;5889;51.350;6.708;2022-12-05T05:18:44;3.50;99.90
11666;DHT22;5889;51.350;6.708;2022-12-05T05:21:18;3.40;99.90
11666;DHT22;5889;51.350;6.708;2022-12-05T05:23:46;3.50;99.90
11666;DHT22;5889;51.350;6.708;2022-12-05T05:26:14;3.40;99.90
11666;DHT22;5889;51.350;6.708;2022-12-05T05:28:41;3.50;99.90
11666;DHT22;5889;51.350;6.708;2022-12-05T05:31:08;3.50;99.90
11666;DHT22;5889;51.350;6.708;2022-12-05T05:33:35;3.50;99.90
11666;DHT22;5889;51.350;6.708;2022-12-05T05:36:03;3.40;99.90
11666;DHT22;5889;51.350;6.708;2022-12-05T05:38:34;3.50;99.90
11666;DHT22;5889;51.350;6.708;2022-12-05T05:41:01;3.50;99.90
11666;DHT22;5889;51.350;6.708;2022-12-05T05:43:28;3.40;99.90
11666;DHT22;5889;51.350;6.708;2022-12-05T05:45:55;3.40;99.90
11666;DHT22;5889;51.350;6.708;2022-12-05T05:48:22;3.50;99.90
11666;DHT22;5889;51.350;6.708;2022-12-05T05:50:49;3.50;99.90
11666;DHT22;5889;51.350;6.708;2022-12-05T05:53:16;3.40;99.90
11666;DHT22;5889;51.350;6.708;2022-12-05T05:55:44;3.50;99.90
11666;DHT22;5889;51.350;6.708;2022-12-05T05:58:11;3.50;99.90
11666;DHT22;5889;51.350;6.708;2022-12-05T06:00:38;3.50;99.90
11666;DHT22;5889;51.350;6.708;2022-12-05T06:03:05;3.50;99.90
11666;DHT22;5889;51.350;6.708;2022-12-05T06:05:32;3.50;99.90
11666;DHT22;5889;51.350;6.708;2022-12-05T06:07:59;3.50;99.90
11666;DHT22;5889;51.350;6.708;2022-12-05T06:10:26;3.50;99.90
11666;DHT22;5889;51.350;6.708;2022-12-05T06:12:55;3.40;99.90
11666;DHT22;5889;51.350;6.708;2022-12-05T06:15:22;3.40;99.90
11666;DHT22;5889;51.350;6.708;2022-12-05T06:17:49;3.40;99.90
11666;DHT22;5889;51.350;6.708;2022-12-05T06:20:16;3.40;99.90
11666;DHT22;5889;51.350;6.708;2022-12-05T06:22:43;3.50;99.90
11666;DHT22;5889;51.350;6.708;2022-12-05T06:25:10;3.50;99.90
11666;DHT22;5889;51.350;6.708;2022-12-05T06:27:37;3.50;99.90
11666;DHT22;5889;51.350;6.708;2022-12-05T06:30:07;3.40;99.90
11666;DHT22;5889;51.350;6.708;2022-12-05T06:32:34;3.50;99.90
11666;DHT22;5889;51.350;6.708;2022-12-05T06:35:01;3.40;99.90
11666;DHT22;5889;51.350;6.708;2022-12-05T06:37:36;3.40;99.90
11666;DHT22;5889;51.350;6.708;2022-12-05T06:40:04;3.40;99.90
11666;DHT22;5889;51.350;6.708;2022-12-05T06:42:31;3.50;99.90
11666;DHT22;5889;51.350;6.708;2022-12-05T06:44:58;3.40;99.90
11666;DHT22;5889;51.350;6.708;2022-12-05T06:47:27;3.40;99.90
11666;DHT22;5889;51.350;6.708;2022-12-05T06:49:53;3.40;99.90
11666;DHT22;5889;51.350;6.708;2022-12-05T06:52:20;3.50;99.90
11666;DHT22;5889;51.350;6.708;2022-12-05T06:54:47;3.40;99.90
11666;DHT22;5889;51.350;6.708;2022-12-05T06:57:14;3.40;99.90
11666;DHT22;5889;51.350;6.708;2022-12-05T06:59:41;3.30;99.90
11666;DHT22;5889;51.350;6.708;2022-12-05T07:02:14;3.20;99.90
11666;DHT22;5889;51.350;6.708;2022-12-05T07:04:41;3.20;99.90
11666;DHT22;5889;51.350;6.708;2022-12-05T07:07:08;3.20;99.90
11666;DHT22;5889;51.350;6.708;2022-12-05T07:09:35;3.20;99.90
11666;DHT22;5889;51.350;6.708;2022-12-05T07:12:18;3.20;99.90
11666;DHT22;5889;51.350;6.708;2022-12-05T07:14:45;3.20;99.90
11666;DHT22;5889;51.350;6.708;2022-12-05T07:17:12;3.20;99.90
11666;DHT22;5889;51.350;6.708;2022-12-05T07:19:40;3.20;99.90
11666;DHT22;5889;51.350;6.708;2022-12-05T07:22:07;3.20;99.90
11666;DHT22;5889;51.350;6.708;2022-12-05T07:24:34;3.20;99.90
11666;DHT22;5889;51.350;6.708;2022-12-05T07:27:01;3.20;99.90
11666;DHT22;5889;51.350;6.708;2022-12-05T07:29:28;3.30;99.90
11666;DHT22;5889;51.350;6.708;2022-12-05T07:31:55;3.20;99.90
11666;DHT22;5889;51.350;6.708;2022-12-05T07:34:21;3.20;99.90
11666;DHT22;5889;51.350;6.708;2022-12-05T07:36:50;3.30;99.90
11666;DHT22;5889;51.350;6.708;2022-12-05T07:39:17;3.30;99.90
11666;DHT22;5889;51.350;6.708;2022-12-05T07:41:44;3.30;99.90
11666;DHT22;5889;51.350;6.708;2022-12-05T07:44:11;3.30;99.90
11666;DHT22;5889;51.350;6.708;2022-12-05T07:46:38;3.30;99.90
11666;DHT22;5889;51.350;6.708;2022-12-05T07:49:06;3.30;99.90
11666;DHT22;5889;51.350;6.708;2022-12-05T07:51:33;3.30;99.90
11666;DHT22;5889;51.350;6.708;2022-12-05T07:54:02;3.30;99.90
11666;DHT22;5889;51.350;6.708;2022-12-05T07:56:29;3.30;99.90
11666;DHT22;5889;51.350;6.708;2022-12-05T07:58:56;3.30;99.90
11666;DHT22;5889;51.350;6.708;2022-12-05T08:01:24;3.20;99.90
11666;DHT22;5889;51.350;6.708;2022-12-05T08:03:52;3.20;99.90
11666;DHT22;5889;51.350;6.708;2022-12-05T08:06:21;3.30;99.90
11666;DHT22;5889;51.350;6.708;2022-12-05T08:08:49;3.30;99.90
11666;DHT22;5889;51.350;6.708;2022-12-05T08:11:19;3.30;99.90
11666;DHT22;5889;51.350;6.708;2022-12-05T08:13:46;3.30;99.90
11666;DHT22;5889;51.350;6.708;2022-12-05T08:16:15;3.30;99.90
11666;DHT22;5889;51.350;6.708;2022-12-05T08:18:43;3.30;99.90
11666;DHT22;5889;51.350;6.708;2022-12-05T08:21:12;3.20;99.90
11666;DHT22;5889;51.350;6.708;2022-12-05T08:23:40;3.20;99.90
11666;DHT22;5889;51.350;6.708;2022-12-05T08:26:09;3.20;99.90
11666;DHT22;5889;51.350;6.708;2022-12-05T08:28:38;3.20;99.90
11666;DHT22;5889;51.350;6.708;2022-12-05T08:31:07;3.20;99.90
11666;DHT22;5889;51.350;6.708;2022-12-05T08:33:35;3.20;99.90
11666;DHT22;5889;51.350;6.708;2022-12-05T08:36:03;3.20;99.90
11666;DHT22;5889;51.350;6.708;2022-12-05T08:38:30;3.20;99.90
11666;DHT22;5889;51.350;6.708;2022-12-05T08:40:59;3.30;99.90
11666;DHT22;5889;51.350;6.708;2022-12-05T08:43:27;3.30;99.90
11666;DHT22;5889;51.350;6.708;2022-12-05T08:45:55;3.30;99.90
11666;DHT22;5889;51.350;6.708;2022-12-05T08:48:23;3.30;99.90
11666;DHT22;5889;51.350;6.708;2022-12-05T08:50:50;3.30;99.90
11666;DHT22;5889;51.350;6.708;2022-12-05T08:53:17;3.30;99.90
11666;DHT22;5889;51.350;6.708;2022-12-05T08:55:44;3.30;99.90
11666;DHT22;5889;51.350;6.708;2022-12-05T08:58:11;3.40;99.90
11666;DHT22;5889;51.350;6.708;2022-12-05T09:00:38;3.30;99.90
11666;DHT22;5889;51.350;6.708;2022-12-05T09:03:07;3.30;99.90
11666;DHT22;5889;51.350;6.708;2022-12-05T09:05:35;3.40;99.90
11666;DHT22;5889;51.350;6.708;2022-12-05T09:08:02;3.30;99.90
11666;DHT22;5889;51.350;6.708;2022-12-05T09:10:29;3.40;99.90
11666;DHT22;5889;51.350;6.708;2022-12-05T09:12:57;3.40;99.90
11666;DHT22;5889;51.350;6.708;2022-12-05T09:15:24;3.40;99.90
11666;DHT22;5889;51.350;6.708;2022-12-05T09:17:51;3.40;99.90
11666;DHT22;5889;51.350;6.708;2022-12-05T09:20:19;3.40;99.90
11666;DHT22;5889;51.350;6.708;2022-12-05T09:22:46;3.50;99.90
11666;DHT22;5889;51.350;6.708;2022-12-05T09:25:13;3.50;99.90
11666;DHT22;5889;51.350;6.708;2022-12-05T09:27:40;3.50;99.90
11666;DHT22;5889;51.350;6.708;2022-12-05T09:30:08;3.50;99.90
11666;DHT22;5889;51.350;6.708;2022-12-05T09:32:35;3.50;99.90
11666;DHT22;5889;51.350;6.708;2022-12-05T09:35:02;3.60;99.90
11666;DHT22;5889;51.350;6.708;2022-12-05T09:37:30;3.50;99.90
11666;DHT22;5889;51.350;6.708;2022-12-05T09:39:57;3.40;99.90
11666;DHT22;5889;51.350;6.708;2022-12-05T09:42:33;3.30;99.90
11666;DHT22;5889;51.350;6.708;2022-12-05T09:45:11;3.30;99.90
11666;DHT22;5889;51.350;6.708;2022-12-05T09:47:47;3.20;99.90
11666;DHT22;5889;51.350;6.708;2022-12-05T09:50:19;3.10;99.90
11666;DHT22;5889;51.350;6.708;2022-12-05T09:53:03;3.10;99.90
11666;DHT22;5889;51.350;6.708;2022-12-05T09:55:37;3.10;99.90
11666;DHT22;5889;51.350;6.708;2022-12-05T09:58:11;3.20;99.90
11666;DHT22;5889;51.350;6.708;2022-12-05T10:00:40;3.20;99.90
11666;DHT22;5889;51.350;6.708;2022-12-05T10:03:17;3.30;99.90
11666;DHT22;5889;51.350;6.708;2022-12-05T10:05:51;3.30;99.90
11666;DHT22;5889;51.350;6.708;2022-12-05T10:08:27;3.40;99.90
11666;DHT22;5889;51.350;6.708;2022-12-05T10:11:00;3.40;99.90
11666;DHT22;5889;51.350;6.708;2022-12-05T10:13:37;3.40;99.90
11666;DHT22;5889;51.350;6.708;2022-12-05T10:16:11;3.30;99.90
11666;DHT22;5889;51.350;6.708;2022-12-05T10:18:42;3.20;99.90
11666;DHT22;5889;51.350;6.708;2022-12-05T10:21:14;3.10;99.90
11666;DHT22;5889;51.350;6.708;2022-12-05T10:23:50;3.10;99.90
11666;DHT22;5889;51.350;6.708;2022-12-05T10:26:19;3.00;99.90
11666;DHT22;5889;51.350;6.708;2022-12-05T10:28:50;3.00;99.90
11666;DHT22;5889;51.350;6.708;2022-12-05T10:31:24;2.90;99.90
11666;DHT22;5889;51.350;6.708;2022-12-05T10:33:56;2.90;99.90
11666;DHT22;5889;51.350;6.708;2022-12-05T10:36:24;2.80;99.90
11666;DHT22;5889;51.350;6.708;2022-12-05T10:38:53;2.80;99.90
11666;DHT22;5889;51.350;6.708;2022-12-05T10:41:21;2.80;99.90
11666;DHT22;5889;51.350;6.708;2022-12-05T10:43:48;2.70;99.90
11666;DHT22;5889;51.350;6.708;2022-12-05T10:46:15;2.70;99.90
11666;DHT22;5889;51.350;6.708;2022-12-05T10:48:42;2.70;99.90
11666;DHT22;5889;51.350;6.708;2022-12-05T10:51:13;2.60;99.90
11666;DHT22;5889;51.350;6.708;2022-12-05T10:53:43;2.60;99.90
11666;DHT22;5889;51.350;6.708;2022-12-05T10:56:40;2.50;99.90
11666;DHT22;5889;51.350;6.708;2022-12-05T10:59:08;2.40;99.90
11666;DHT22;5889;51.350;6.708;2022-12-05T11:01:36;2.40;99.90
11666;DHT22;5889;51.350;6.708;2022-12-05T11:04:09;2.40;99.90
11666;DHT22;5889;51.350;6.708;2022-12-05T11:06:50;2.40;99.90
11666;DHT22;5889;51.350;6.708;2022-12-05T11:09:19;2.40;99.90
11666;DHT22;5889;51.350;6.708;2022-12-05T11:12:00;2.40;99.90
11666;DHT22;5889;51.350;6.708;2022-12-05T11:14:28;2.40;99.90
11666;DHT22;5889;51.350;6.708;2022-12-05T11:16:57;2.40;99.90
11666;DHT22;5889;51.350;6.708;2022-12-05T11:19:26;2.40;99.90
11666;DHT22;5889;51.350;6.708;2022-12-05T11:21:54;2.30;99.90
11666;DHT22;5889;51.350;6.708;2022-12-05T11:24:25;2.30;99.90
11666;DHT22;5889;51.350;6.708;2022-12-05T11:26:52;2.30;99.90
11666;DHT22;5889;51.350;6.708;2022-12-05T11:29:36;2.30;99.90
11666;DHT22;5889;51.350;6.708;2022-12-05T11:32:04;2.30;99.90
11666;DHT22;5889;51.350;6.708;2022-12-05T11:34:36;2.30;99.90
11666;DHT22;5889;51.350;6.708;2022-12-05T11:37:09;2.30;99.90
11666;DHT22;5889;51.350;6.708;2022-12-05T11:39:37;2.30;99.90
11666;DHT22;5889;51.350;6.708;2022-12-05T11:42:17;2.30;99.90
11666;DHT22;5889;51.350;6.708;2022-12-05T11:45:08;2.20;99.90
11666;DHT22;5889;51.350;6.708;2022-12-05T11:47:46;2.30;99.90
11666;DHT22;5889;51.350;6.708;2022-12-05T11:50:24;2.30;99.90
11666;DHT22;5889;51.350;6.708;2022-12-05T11:53:05;2.40;99.90
11666;DHT22;5889;51.350;6.708;2022-12-05T11:55:38;2.40;99.90
11666;DHT22;5889;51.350;6.708;2022-12-05T12:01:14;2.40;99.90
11666;DHT22;5889;51.350;6.708;2022-12-05T12:04:16;2.40;99.90
11666;DHT22;5889;51.350;6.708;2022-12-05T12:06:56;2.40;99.90
11666;DHT22;5889;51.350;6.708;2022-12-05T12:09:38;2.50;99.90
11666;DHT22;5889;51.350;6.708;2022-12-05T12:12:18;2.50;99.90
11666;DHT22;5889;51.350;6.708;2022-12-05T12:14:53;2.40;99.90
11666;DHT22;5889;51.350;6.708;2022-12-05T12:17:30;2.40;99.90
11666;DHT22;5889;51.350;6.708;2022-12-05T12:20:17;2.40;99.90
11666;DHT22;5889;51.350;6.708;2022-12-05T12:22:59;2.40;99.90
11666;DHT22;5889;51.350;6.708;2022-12-05T12:25:38;2.40;99.90
11666;DHT22;5889;51.350;6.708;2022-12-05T12:28:20;2.40;99.90
11666;DHT22;5889;51.350;6.708;2022-12-05T12:31:01;2.30;99.90
11666;DHT22;5889;51.350;6.708;2022-12-05T12:33:36;2.30;99.90
11666;DHT22;5889;51.350;6.708;2022-12-05T12:36:13;2.30;99.90
11666;DHT22;5889;51.350;6.708;2022-12-05T12:38:58;2.30;99.90
11666;DHT22;5889;51.350;6.708;2022-12-05T12:41:50;2.30;99.90
11666;DHT22;5889;51.350;6.708;2022-12-05T12:44:48;2.20;99.90
11666;DHT22;5889;51.350;6.708;2022-12-05T12:47:25;2.20;99.90
11666;DHT22;5889;51.350;6.708;2022-12-05T12:50:06;2.20;99.90
11666;DHT22;5889;51.350;6.708;2022-12-05T12:52:58;2.20;99.90
11666;DHT22;5889;51.350;6.708;2022-12-05T12:55:35;2.20;99.90
11666;DHT22;5889;51.350;6.708;2022-12-05T12:58:14;2.20;99.90
11666;DHT22;5889;51.350;6.708;2022-12-05T13:00:55;2.20;99.90
11666;DHT22;5889;51.350;6.708;2022-12-05T13:03:27;2.20;99.90
11666;DHT22;5889;51.350;6.708;2022-12-05T13:05:59;2.20;99.90
11666;DHT22;5889;51.350;6.708;2022-12-05T13:08:31;2.10;99.90
11666;DHT22;5889;51.350;6.708;2022-12-05T13:11:02;2.20;99.90
11666;DHT22;5889;51.350;6.708;2022-12-05T13:13:34;2.20;99.90
11666;DHT22;5889;51.350;6.708;2022-12-05T13:16:05;2.20;99.90
11666;DHT22;5889;51.350;6.708;2022-12-05T13:18:34;2.30;99.90
11666;DHT22;5889;51.350;6.708;2022-12-05T13:21:05;2.30;99.90
11666;DHT22;5889;51.350;6.708;2022-12-05T13:23:35;2.30;99.90
11666;DHT22;5889;51.350;6.708;2022-12-05T13:26:08;2.30;99.90
11666;DHT22;5889;51.350;6.708;2022-12-05T13:28:38;2.30;99.90
11666;DHT22;5889;51.350;6.708;2022-12-05T13:31:08;2.30;99.90
11666;DHT22;5889;51.350;6.708;2022-12-05T13:33:43;2.30;99.90
11666;DHT22;5889;51.350;6.708;2022-12-05T13:36:13;2.30;99.90
11666;DHT22;5889;51.350;6.708;2022-12-05T13:39:00;2.30;99.90
11666;DHT22;5889;51.350;6.708;2022-12-05T13:41:47;2.30;99.90
11666;DHT22;5889;51.350;6.708;2022-12-05T13:44:36;2.20;99.90
11666;DHT22;5889;51.350;6.708;2022-12-05T13:47:05;2.20;99.90
11666;DHT22;5889;51.350;6.708;2022-12-05T13:49:40;2.10;99.90
11666;DHT22;5889;51.350;6.708;2022-12-05T13:52:13;2.10;99.90
11666;DHT22;5889;51.350;6.708;2022-12-05T13:54:44;2.10;99.90
11666;DHT22;5889;51.350;6.708;2022-12-05T13:57:46;2.00;99.90
11666;DHT22;5889;51.350;6.708;2022-12-05T14:00:30;2.00;99.90
11666;DHT22;5889;51.350;6.708;2022-12-05T14:03:02;2.00;99.90
11666;DHT22;5889;51.350;6.708;2022-12-05T14:05:53;2.00;99.90
11666;DHT22;5889;51.350;6.708;2022-12-05T14:11:31;2.00;99.90
11666;DHT22;5889;51.350;6.708;2022-12-05T14:13:58;2.00;99.90
11666;DHT22;5889;51.350;6.708;2022-12-05T14:16:46;2.00;99.90
11666;DHT22;5889;51.350;6.708;2022-12-05T14:19:36;2.10;99.90
11666;DHT22;5889;51.350;6.708;2022-12-05T14:25:11;2.20;99.90
11666;DHT22;5889;51.350;6.708;2022-12-05T14:27:51;2.20;99.90
11666;DHT22;5889;51.350;6.708;2022-12-05T14:30:24;2.20;99.90
11666;DHT22;5889;51.350;6.708;2022-12-05T14:32:59;2.20;99.90
11666;DHT22;5889;51.350;6.708;2022-12-05T14:35:29;2.20;99.90
11666;DHT22;5889;51.350;6.708;2022-12-05T14:37:59;2.20;99.90
11666;DHT22;5889;51.350;6.708;2022-12-05T14:40:31;2.10;99.90
11666;DHT22;5889;51.350;6.708;2022-12-05T14:43:01;2.10;99.90
11666;DHT22;5889;51.350;6.708;2022-12-05T14:45:34;2.20;99.90
11666;DHT22;5889;51.350;6.708;2022-12-05T14:48:05;2.10;99.90
11666;DHT22;5889;51.350;6.708;2022-12-05T14:50:51;2.10;99.90
11666;DHT22;5889;51.350;6.708;2022-12-05T14:53:36;2.00;99.90
11666;DHT22;5889;51.350;6.708;2022-12-05T14:56:17;2.00;99.90
11666;DHT22;5889;51.350;6.708;2022-12-05T14:58:49;1.90;99.90
11666;DHT22;5889;51.350;6.708;2022-12-05T15:01:20;1.90;99.90
11666;DHT22;5889;51.350;6.708;2022-12-05T15:04:08;1.80;99.90
11666;DHT22;5889;51.350;6.708;2022-12-05T15:06:45;1.70;99.90
11666;DHT22;5889;51.350;6.708;2022-12-05T15:09:33;1.70;99.90
11666;DHT22;5889;51.350;6.708;2022-12-05T15:12:04;1.70;99.90
11666;DHT22;5889;51.350;6.708;2022-12-05T15:14:38;1.60;99.90
11666;DHT22;5889;51.350;6.708;2022-12-05T15:17:14;1.60;99.90
11666;DHT22;5889;51.350;6.708;2022-12-05T15:19:46;1.60;99.90
11666;DHT22;5889;51.350;6.708;2022-12-05T15:22:20;1.70;99.90
11666;DHT22;5889;51.350;6.708;2022-12-05T15:24:48;1.60;99.90
11666;DHT22;5889;51.350;6.708;2022-12-05T15:27:15;1.60;99.90
11666;DHT22;5889;51.350;6.708;2022-12-05T15:29:43;1.60;99.90
11666;DHT22;5889;51.350;6.708;2022-12-05T15:32:20;1.70;99.90
11666;DHT22;5889;51.350;6.708;2022-12-05T15:34:52;1.70;99.90
11666;DHT22;5889;51.350;6.708;2022-12-05T15:37:23;1.60;99.90
11666;DHT22;5889;51.350;6.708;2022-12-05T15:39:54;1.70;99.90
11666;DHT22;5889;51.350;6.708;2022-12-05T15:42:22;1.70;99.90
11666;DHT22;5889;51.350;6.708;2022-12-05T15:44:51;1.60;99.90
11666;DHT22;5889;51.350;6.708;2022-12-05T15:47:20;1.70;99.90
11666;DHT22;5889;51.350;6.708;2022-12-05T15:49:48;1.70;99.90
11666;DHT22;5889;51.350;6.708;2022-12-05T15:52:23;1.70;99.90
11666;DHT22;5889;51.350;6.708;2022-12-05T15:54:51;1.70;99.90
11666;DHT22;5889;51.350;6.708;2022-12-05T15:57:23;1.70;99.90
11666;DHT22;5889;51.350;6.708;2022-12-05T15:59:59;1.70;99.90
11666;DHT22;5889;51.350;6.708;2022-12-05T16:02:34;1.60;99.90
11666;DHT22;5889;51.350;6.708;2022-12-05T16:05:03;1.60;99.90
11666;DHT22;5889;51.350;6.708;2022-12-05T16:07:30;1.60;99.90
11666;DHT22;5889;51.350;6.708;2022-12-05T16:09:58;1.60;99.90
11666;DHT22;5889;51.350;6.708;2022-12-05T16:12:33;1.60;99.90
11666;DHT22;5889;51.350;6.708;2022-12-05T16:15:07;1.50;99.90
11666;DHT22;5889;51.350;6.708;2022-12-05T16:17:39;1.60;99.90
11666;DHT22;5889;51.350;6.708;2022-12-05T16:20:20;1.60;99.90
11666;DHT22;5889;51.350;6.708;2022-12-05T16:22:49;1.60;99.90
11666;DHT22;5889;51.350;6.708;2022-12-05T16:25:21;1.60;99.90
11666;DHT22;5889;51.350;6.708;2022-12-05T16:27:56;1.60;99.90
11666;DHT22;5889;51.350;6.708;2022-12-05T16:30:25;1.70;99.90
11666;DHT22;5889;51.350;6.708;2022-12-05T16:32:59;1.70;99.90
11666;DHT22;5889;51.350;6.708;2022-12-05T16:35:44;1.70;99.90
11666;DHT22;5889;51.350;6.708;2022-12-05T16:38:13;1.70;99.90
11666;DHT22;5889;51.350;6.708;2022-12-05T16:40:51;1.70;99.90
11666;DHT22;5889;51.350;6.708;2022-12-05T16:43:26;1.80;99.90